sensor_id;sensor_type;location;lat;lon;timestamp;temperature;humidity
66190;DHT22;52992;52.084;5.412;2023-09-19T00:00:57;19.40;80.80
66190;DHT22;52992;52.084;5.412;2023-09-19T00:03:24;19.40;80.90
66190;DHT22;52992;52.084;5.412;2023-09-19T00:05:52;19.40;80.60
66190;DHT22;52992;52.084;5.412;2023-09-19T00:08:19;19.40;81.00
66190;DHT22;52992;52.084;5.412;2023-09-19T00:10:50;19.40;81.70
66190;DHT22;52992;52.084;5.412;2023-09-19T00:13:17;19.30;81.20
66190;DHT22;52992;52.084;5.412;2023-09-19T00:15:47;19.40;81.20
66190;DHT22;52992;52.084;5.412;2023-09-19T00:18:19;19.40;80.90
66190;DHT22;52992;52.084;5.412;2023-09-19T00:20:48;19.30;80.70
66190;DHT22;52992;52.084;5.412;2023-09-19T00:23:17;19.30;81.00
66190;DHT22;52992;52.084;5.412;2023-09-19T00:25:46;19.30;80.90
66190;DHT22;52992;52.084;5.412;2023-09-19T00:28:13;19.30;81.10
66190;DHT22;52992;52.084;5.412;2023-09-19T00:30:42;19.20;80.90
66190;DHT22;52992;52.084;5.412;2023-09-19T00:33:10;19.20;81.10
66190;DHT22;52992;52.084;5.412;2023-09-19T00:35:38;19.20;81.20
66190;DHT22;52992;52.084;5.412;2023-09-19T00:38:05;19.20;80.90
66190;DHT22;52992;52.084;5.412;2023-09-19T00:40:34;19.20;81.00
66190;DHT22;52992;52.084;5.412;2023-09-19T00:43:02;19.30;81.00
66190;DHT22;52992;52.084;5.412;2023-09-19T00:45:29;19.20;80.70
66190;DHT22;52992;52.084;5.412;2023-09-19T00:47:56;19.20;81.00
66190;DHT22;52992;52.084;5.412;2023-09-19T00:50:26;19.20;81.20
66190;DHT22;52992;52.084;5.412;2023-09-19T00:52:55;19.20;80.90
66190;DHT22;52992;52.084;5.412;2023-09-19T00:55:25;19.20;80.90
66190;DHT22;52992;52.084;5.412;2023-09-19T00:57:56;19.20;81.00
66190;DHT22;52992;52.084;5.412;2023-09-19T01:00:24;19.20;81.20
66190;DHT22;52992;52.084;5.412;2023-09-19T01:02:51;19.20;81.20
66190;DHT22;52992;52.084;5.412;2023-09-19T01:05:19;19.20;81.10
66190;DHT22;52992;52.084;5.412;2023-09-19T01:07:46;19.30;81.10
66190;DHT22;52992;52.084;5.412;2023-09-19T01:10:18;19.20;80.90
66190;DHT22;52992;52.084;5.412;2023-09-19T01:13:13;19.30;81.00
66190;DHT22;52992;52.084;5.412;2023-09-19T01:15:55;19.30;81.40
66190;DHT22;52992;52.084;5.412;2023-09-19T01:18:42;19.40;81.40
66190;DHT22;52992;52.084;5.412;2023-09-19T01:21:37;19.30;81.70
66190;DHT22;52992;52.084;5.412;2023-09-19T01:29:41;19.30;81.70
66190;DHT22;52992;52.084;5.412;2023-09-19T01:32:14;19.30;81.40
66190;DHT22;52992;52.084;5.412;2023-09-19T01:34:54;19.40;81.40
66190;DHT22;52992;52.084;5.412;2023-09-19T01:37:23;19.40;81.60
66190;DHT22;52992;52.084;5.412;2023-09-19T01:39:57;19.30;81.40
66190;DHT22;52992;52.084;5.412;2023-09-19T01:42:40;19.30;81.40
66190;DHT22;52992;52.084;5.412;2023-09-19T01:48:20;19.30;81.80
66190;DHT22;52992;52.084;5.412;2023-09-19T01:50:57;19.30;81.70
66190;DHT22;52992;52.084;5.412;2023-09-19T01:53:34;19.20;81.80
66190;DHT22;52992;52.084;5.412;2023-09-19T01:56:05;19.20;81.80
66190;DHT22;52992;52.084;5.412;2023-09-19T01:58:44;19.20;81.30
66190;DHT22;52992;52.084;5.412;2023-09-19T02:01:19;19.20;81.70
66190;DHT22;52992;52.084;5.412;2023-09-19T02:03:50;19.20;81.70
66190;DHT22;52992;52.084;5.412;2023-09-19T02:06:19;19.20;81.50
66190;DHT22;52992;52.084;5.412;2023-09-19T02:08:46;19.20;81.40
66190;DHT22;52992;52.084;5.412;2023-09-19T02:11:14;19.10;81.20
66190;DHT22;52992;52.084;5.412;2023-09-19T02:13:42;19.10;81.10
66190;DHT22;52992;52.084;5.412;2023-09-19T02:16:10;19.10;81.10
66190;DHT22;52992;52.084;5.412;2023-09-19T02:18:39;19.10;80.90
66190;DHT22;52992;52.084;5.412;2023-09-19T02:21:06;19.00;80.90
66190;DHT22;52992;52.084;5.412;2023-09-19T02:23:33;19.00;81.60
66190;DHT22;52992;52.084;5.412;2023-09-19T02:26:00;18.90;80.70
66190;DHT22;52992;52.084;5.412;2023-09-19T02:28:27;18.80;80.70
66190;DHT22;52992;52.084;5.412;2023-09-19T02:30:59;18.80;80.80
66190;DHT22;52992;52.084;5.412;2023-09-19T02:33:26;18.80;80.80
66190;DHT22;52992;52.084;5.412;2023-09-19T02:35:56;18.80;80.70
66190;DHT22;52992;52.084;5.412;2023-09-19T02:38:27;18.70;81.00
66190;DHT22;52992;52.084;5.412;2023-09-19T02:40:56;18.70;81.10
66190;DHT22;52992;52.084;5.412;2023-09-19T02:43:23;18.70;80.80
66190;DHT22;52992;52.084;5.412;2023-09-19T02:45:51;18.60;80.80
66190;DHT22;52992;52.084;5.412;2023-09-19T02:48:21;18.50;80.90
66190;DHT22;52992;52.084;5.412;2023-09-19T02:50:52;18.60;81.10
66190;DHT22;52992;52.084;5.412;2023-09-19T02:53:19;18.50;81.10
66190;DHT22;52992;52.084;5.412;2023-09-19T02:55:47;18.40;80.90
66190;DHT22;52992;52.084;5.412;2023-09-19T02:58:15;18.40;80.70
66190;DHT22;52992;52.084;5.412;2023-09-19T03:00:42;18.40;80.80
66190;DHT22;52992;52.084;5.412;2023-09-19T03:03:15;18.40;80.60
66190;DHT22;52992;52.084;5.412;2023-09-19T03:05:45;18.30;80.50
66190;DHT22;52992;52.084;5.412;2023-09-19T03:08:15;18.20;80.40
66190;DHT22;52992;52.084;5.412;2023-09-19T03:10:48;18.20;80.00
66190;DHT22;52992;52.084;5.412;2023-09-19T03:13:16;18.10;80.00
66190;DHT22;52992;52.084;5.412;2023-09-19T03:15:44;18.10;80.70
66190;DHT22;52992;52.084;5.412;2023-09-19T03:18:14;18.00;79.80
66190;DHT22;52992;52.084;5.412;2023-09-19T03:20:42;18.00;79.90
66190;DHT22;52992;52.084;5.412;2023-09-19T03:23:09;18.00;79.80
66190;DHT22;52992;52.084;5.412;2023-09-19T03:25:37;17.90;79.90
66190;DHT22;52992;52.084;5.412;2023-09-19T03:28:04;17.90;79.90
66190;DHT22;52992;52.084;5.412;2023-09-19T03:30:32;17.90;79.80
66190;DHT22;52992;52.084;5.412;2023-09-19T03:33:02;17.80;79.70
66190;DHT22;52992;52.084;5.412;2023-09-19T03:35:32;17.80;79.30
66190;DHT22;52992;52.084;5.412;2023-09-19T03:37:59;17.70;79.40
66190;DHT22;52992;52.084;5.412;2023-09-19T03:40:27;17.70;79.40
66190;DHT22;52992;52.084;5.412;2023-09-19T03:42:54;17.60;79.30
66190;DHT22;52992;52.084;5.412;2023-09-19T03:45:21;17.60;79.50
66190;DHT22;52992;52.084;5.412;2023-09-19T03:47:51;17.60;79.30
66190;DHT22;52992;52.084;5.412;2023-09-19T03:50:20;17.60;79.60
66190;DHT22;52992;52.084;5.412;2023-09-19T03:52:48;17.60;79.30
66190;DHT22;52992;52.084;5.412;2023-09-19T03:55:16;17.50;79.30
66190;DHT22;52992;52.084;5.412;2023-09-19T03:57:48;17.50;79.30
66190;DHT22;52992;52.084;5.412;2023-09-19T04:00:16;17.50;79.40
66190;DHT22;52992;52.084;5.412;2023-09-19T04:02:48;17.50;79.00
66190;DHT22;52992;52.084;5.412;2023-09-19T04:05:15;17.50;78.80
66190;DHT22;52992;52.084;5.412;2023-09-19T04:07:43;17.40;79.00
66190;DHT22;52992;52.084;5.412;2023-09-19T04:10:11;17.40;78.70
66190;DHT22;52992;52.084;5.412;2023-09-19T04:12:38;17.40;79.00
66190;DHT22;52992;52.084;5.412;2023-09-19T04:15:06;17.40;79.00
66190;DHT22;52992;52.084;5.412;2023-09-19T04:17:33;17.40;78.60
66190;DHT22;52992;52.084;5.412;2023-09-19T04:20:01;17.40;78.50
66190;DHT22;52992;52.084;5.412;2023-09-19T04:22:28;17.30;78.40
66190;DHT22;52992;52.084;5.412;2023-09-19T04:24:54;17.30;78.20
66190;DHT22;52992;52.084;5.412;2023-09-19T04:27:22;17.30;78.40
66190;DHT22;52992;52.084;5.412;2023-09-19T04:29:49;17.30;78.20
66190;DHT22;52992;52.084;5.412;2023-09-19T04:32:19;17.20;77.80
66190;DHT22;52992;52.084;5.412;2023-09-19T04:34:46;17.20;77.60
66190;DHT22;52992;52.084;5.412;2023-09-19T04:37:17;17.20;77.20
66190;DHT22;52992;52.084;5.412;2023-09-19T04:39:44;17.10;77.40
66190;DHT22;52992;52.084;5.412;2023-09-19T04:42:13;17.10;77.40
66190;DHT22;52992;52.084;5.412;2023-09-19T04:44:41;17.20;77.30
66190;DHT22;52992;52.084;5.412;2023-09-19T04:47:09;17.20;77.20
66190;DHT22;52992;52.084;5.412;2023-09-19T04:49:39;17.30;77.20
66190;DHT22;52992;52.084;5.412;2023-09-19T04:52:06;17.30;77.00
66190;DHT22;52992;52.084;5.412;2023-09-19T04:54:33;17.30;76.70
66190;DHT22;52992;52.084;5.412;2023-09-19T04:57:00;17.30;76.50
66190;DHT22;52992;52.084;5.412;2023-09-19T04:59:28;17.30;76.70
66190;DHT22;52992;52.084;5.412;2023-09-19T05:01:58;17.30;76.70
66190;DHT22;52992;52.084;5.412;2023-09-19T05:04:25;17.40;76.50
66190;DHT22;52992;52.084;5.412;2023-09-19T05:06:52;17.40;76.40
66190;DHT22;52992;52.084;5.412;2023-09-19T05:09:20;17.30;75.90
66190;DHT22;52992;52.084;5.412;2023-09-19T05:11:47;17.30;76.20
66190;DHT22;52992;52.084;5.412;2023-09-19T05:14:15;17.30;76.10
66190;DHT22;52992;52.084;5.412;2023-09-19T05:16:41;17.30;76.20
66190;DHT22;52992;52.084;5.412;2023-09-19T05:19:09;17.30;76.20
66190;DHT22;52992;52.084;5.412;2023-09-19T05:21:38;17.30;76.10
66190;DHT22;52992;52.084;5.412;2023-09-19T05:24:08;17.30;75.90
66190;DHT22;52992;52.084;5.412;2023-09-19T05:26:37;17.40;75.80
66190;DHT22;52992;52.084;5.412;2023-09-19T05:29:04;17.30;76.40
66190;DHT22;52992;52.084;5.412;2023-09-19T05:31:31;17.30;75.60
66190;DHT22;52992;52.084;5.412;2023-09-19T05:33:58;17.30;75.50
66190;DHT22;52992;52.084;5.412;2023-09-19T05:36:27;17.30;75.60
66190;DHT22;52992;52.084;5.412;2023-09-19T05:38:56;17.30;75.40
66190;DHT22;52992;52.084;5.412;2023-09-19T05:41:23;17.30;75.40
66190;DHT22;52992;52.084;5.412;2023-09-19T05:43:50;17.30;75.20
66190;DHT22;52992;52.084;5.412;2023-09-19T05:46:17;17.30;75.20
66190;DHT22;52992;52.084;5.412;2023-09-19T05:48:44;17.30;75.20
66190;DHT22;52992;52.084;5.412;2023-09-19T05:51:11;17.40;75.20
66190;DHT22;52992;52.084;5.412;2023-09-19T05:53:38;17.40;75.30
66190;DHT22;52992;52.084;5.412;2023-09-19T05:56:05;17.40;75.20
66190;DHT22;52992;52.084;5.412;2023-09-19T05:58:32;17.40;75.20
66190;DHT22;52992;52.084;5.412;2023-09-19T06:01:00;17.40;75.30
66190;DHT22;52992;52.084;5.412;2023-09-19T06:03:27;17.40;75.20
66190;DHT22;52992;52.084;5.412;2023-09-19T06:05:54;17.50;75.30
66190;DHT22;52992;52.084;5.412;2023-09-19T06:08:24;17.50;75.40
66190;DHT22;52992;52.084;5.412;2023-09-19T06:10:52;17.50;75.10
66190;DHT22;52992;52.084;5.412;2023-09-19T06:13:19;17.50;75.20
66190;DHT22;52992;52.084;5.412;2023-09-19T06:15:46;17.50;75.00
66190;DHT22;52992;52.084;5.412;2023-09-19T06:18:14;17.60;74.90
66190;DHT22;52992;52.084;5.412;2023-09-19T06:20:49;17.60;74.80
66190;DHT22;52992;52.084;5.412;2023-09-19T06:23:18;17.60;74.60
66190;DHT22;52992;52.084;5.412;2023-09-19T06:25:46;17.60;74.50
66190;DHT22;52992;52.084;5.412;2023-09-19T06:28:13;17.70;75.00
66190;DHT22;52992;52.084;5.412;2023-09-19T06:30:41;17.70;74.70
66190;DHT22;52992;52.084;5.412;2023-09-19T06:33:08;17.80;74.50
66190;DHT22;52992;52.084;5.412;2023-09-19T06:35:38;17.70;74.40
66190;DHT22;52992;52.084;5.412;2023-09-19T06:38:05;17.80;74.60
66190;DHT22;52992;52.084;5.412;2023-09-19T06:40:33;17.80;74.50
66190;DHT22;52992;52.084;5.412;2023-09-19T06:43:01;17.80;74.50
66190;DHT22;52992;52.084;5.412;2023-09-19T06:45:31;17.80;74.30
66190;DHT22;52992;52.084;5.412;2023-09-19T06:47:58;17.90;74.40
66190;DHT22;52992;52.084;5.412;2023-09-19T06:50:27;17.90;74.30
66190;DHT22;52992;52.084;5.412;2023-09-19T06:52:54;17.90;74.40
66190;DHT22;52992;52.084;5.412;2023-09-19T06:55:23;17.90;74.20
66190;DHT22;52992;52.084;5.412;2023-09-19T06:57:52;18.00;74.30
66190;DHT22;52992;52.084;5.412;2023-09-19T07:00:21;18.10;74.20
66190;DHT22;52992;52.084;5.412;2023-09-19T07:03:00;18.20;74.20
66190;DHT22;52992;52.084;5.412;2023-09-19T07:05:40;18.20;74.30
66190;DHT22;52992;52.084;5.412;2023-09-19T07:08:08;18.20;74.10
66190;DHT22;52992;52.084;5.412;2023-09-19T07:10:37;18.30;74.20
66190;DHT22;52992;52.084;5.412;2023-09-19T07:13:07;18.30;74.10
66190;DHT22;52992;52.084;5.412;2023-09-19T07:15:38;18.30;73.80
66190;DHT22;52992;52.084;5.412;2023-09-19T07:18:06;18.40;73.70
66190;DHT22;52992;52.084;5.412;2023-09-19T07:20:36;18.50;73.60
66190;DHT22;52992;52.084;5.412;2023-09-19T07:23:03;18.60;73.30
66190;DHT22;52992;52.084;5.412;2023-09-19T07:25:30;18.60;73.50
66190;DHT22;52992;52.084;5.412;2023-09-19T07:27:58;18.70;73.40
66190;DHT22;52992;52.084;5.412;2023-09-19T07:30:27;18.80;72.60
66190;DHT22;52992;52.084;5.412;2023-09-19T07:32:55;18.80;73.10
66190;DHT22;52992;52.084;5.412;2023-09-19T07:35:22;18.90;73.00
66190;DHT22;52992;52.084;5.412;2023-09-19T07:37:49;18.90;73.30
66190;DHT22;52992;52.084;5.412;2023-09-19T07:40:18;19.00;72.50
66190;DHT22;52992;52.084;5.412;2023-09-19T07:42:46;19.10;72.60
66190;DHT22;52992;52.084;5.412;2023-09-19T07:45:14;19.20;72.70
66190;DHT22;52992;52.084;5.412;2023-09-19T07:47:45;19.30;72.00
66190;DHT22;52992;52.084;5.412;2023-09-19T07:50:13;19.40;72.20
66190;DHT22;52992;52.084;5.412;2023-09-19T07:52:41;19.60;72.10
66190;DHT22;52992;52.084;5.412;2023-09-19T07:55:09;19.80;71.80
66190;DHT22;52992;52.084;5.412;2023-09-19T07:57:38;19.90;71.60
66190;DHT22;52992;52.084;5.412;2023-09-19T08:00:05;20.00;71.00
66190;DHT22;52992;52.084;5.412;2023-09-19T08:02:43;20.10;71.40
66190;DHT22;52992;52.084;5.412;2023-09-19T08:05:12;20.20;70.50
66190;DHT22;52992;52.084;5.412;2023-09-19T08:07:44;20.40;70.90
66190;DHT22;52992;52.084;5.412;2023-09-19T08:10:16;20.50;70.40
66190;DHT22;52992;52.084;5.412;2023-09-19T08:12:46;20.50;68.90
66190;DHT22;52992;52.084;5.412;2023-09-19T08:15:15;20.60;69.70
66190;DHT22;52992;52.084;5.412;2023-09-19T08:17:42;20.80;69.90
66190;DHT22;52992;52.084;5.412;2023-09-19T08:20:10;21.00;69.60
66190;DHT22;52992;52.084;5.412;2023-09-19T08:22:51;21.10;68.80
66190;DHT22;52992;52.084;5.412;2023-09-19T08:25:24;21.10;68.90
66190;DHT22;52992;52.084;5.412;2023-09-19T08:27:55;21.10;68.70
66190;DHT22;52992;52.084;5.412;2023-09-19T08:30:25;21.00;68.10
66190;DHT22;52992;52.084;5.412;2023-09-19T08:32:58;21.00;68.50
66190;DHT22;52992;52.084;5.412;2023-09-19T08:35:26;21.10;69.20
66190;DHT22;52992;52.084;5.412;2023-09-19T08:37:53;21.20;69.20
66190;DHT22;52992;52.084;5.412;2023-09-19T08:40:22;21.20;68.60
66190;DHT22;52992;52.084;5.412;2023-09-19T08:42:51;21.20;68.70
66190;DHT22;52992;52.084;5.412;2023-09-19T08:45:24;21.30;68.50
66190;DHT22;52992;52.084;5.412;2023-09-19T08:48:00;21.20;67.50
66190;DHT22;52992;52.084;5.412;2023-09-19T08:50:30;21.20;67.40
66190;DHT22;52992;52.084;5.412;2023-09-19T08:53:01;21.30;67.70
66190;DHT22;52992;52.084;5.412;2023-09-19T08:55:29;21.30;68.10
66190;DHT22;52992;52.084;5.412;2023-09-19T08:58:01;21.30;67.50
66190;DHT22;52992;52.084;5.412;2023-09-19T09:00:37;21.40;67.30
66190;DHT22;52992;52.084;5.412;2023-09-19T09:03:10;21.40;66.60
66190;DHT22;52992;52.084;5.412;2023-09-19T09:05:41;21.40;67.50
66190;DHT22;52992;52.084;5.412;2023-09-19T09:08:10;21.50;66.90
66190;DHT22;52992;52.084;5.412;2023-09-19T09:10:38;21.50;66.00
66190;DHT22;52992;52.084;5.412;2023-09-19T09:13:07;21.50;66.80
66190;DHT22;52992;52.084;5.412;2023-09-19T09:15:36;21.60;66.60
66190;DHT22;52992;52.084;5.412;2023-09-19T09:18:04;21.60;65.10
66190;DHT22;52992;52.084;5.412;2023-09-19T09:20:31;21.70;65.80
66190;DHT22;52992;52.084;5.412;2023-09-19T09:22:59;21.80;65.00
66190;DHT22;52992;52.084;5.412;2023-09-19T09:25:47;21.70;65.90
66190;DHT22;52992;52.084;5.412;2023-09-19T09:28:28;21.70;65.80
66190;DHT22;52992;52.084;5.412;2023-09-19T09:30:55;21.60;65.50
66190;DHT22;52992;52.084;5.412;2023-09-19T09:33:24;21.70;65.60
66190;DHT22;52992;52.084;5.412;2023-09-19T09:35:57;21.90;65.50
66190;DHT22;52992;52.084;5.412;2023-09-19T09:38:28;22.40;64.10
66190;DHT22;52992;52.084;5.412;2023-09-19T09:41:00;22.80;61.90
66190;DHT22;52992;52.084;5.412;2023-09-19T09:43:38;23.20;60.70
66190;DHT22;52992;52.084;5.412;2023-09-19T09:46:16;23.40;60.80
66190;DHT22;52992;52.084;5.412;2023-09-19T09:49:03;23.60;60.20
66190;DHT22;52992;52.084;5.412;2023-09-19T09:52:02;23.60;60.70
66190;DHT22;52992;52.084;5.412;2023-09-19T09:54:38;23.80;59.50
66190;DHT22;52992;52.084;5.412;2023-09-19T09:57:06;24.10;57.50
66190;DHT22;52992;52.084;5.412;2023-09-19T09:59:51;24.40;55.80
66190;DHT22;52992;52.084;5.412;2023-09-19T10:02:27;24.90;53.10
66190;DHT22;52992;52.084;5.412;2023-09-19T10:05:18;25.30;52.20
66190;DHT22;52992;52.084;5.412;2023-09-19T10:07:49;24.80;55.00
66190;DHT22;52992;52.084;5.412;2023-09-19T10:10:37;24.70;54.50
66190;DHT22;52992;52.084;5.412;2023-09-19T10:13:12;24.70;53.70
66190;DHT22;52992;52.084;5.412;2023-09-19T10:15:43;24.30;54.60
66190;DHT22;52992;52.084;5.412;2023-09-19T10:18:26;23.70;56.10
66190;DHT22;52992;52.084;5.412;2023-09-19T10:20:56;23.00;56.70
66190;DHT22;52992;52.084;5.412;2023-09-19T10:23:24;22.70;59.00
66190;DHT22;52992;52.084;5.412;2023-09-19T10:25:52;22.30;60.10
66190;DHT22;52992;52.084;5.412;2023-09-19T10:28:21;22.10;60.00
66190;DHT22;52992;52.084;5.412;2023-09-19T10:30:50;21.90;61.50
66190;DHT22;52992;52.084;5.412;2023-09-19T10:33:19;22.00;59.70
66190;DHT22;52992;52.084;5.412;2023-09-19T10:35:51;22.00;59.70
66190;DHT22;52992;52.084;5.412;2023-09-19T10:38:19;22.40;59.90
66190;DHT22;52992;52.084;5.412;2023-09-19T10:40:52;23.00;57.30
66190;DHT22;52992;52.084;5.412;2023-09-19T10:43:21;23.50;55.70
66190;DHT22;52992;52.084;5.412;2023-09-19T10:45:50;24.10;54.70
66190;DHT22;52992;52.084;5.412;2023-09-19T10:48:20;24.80;53.30
66190;DHT22;52992;52.084;5.412;2023-09-19T10:53:47;24.50;52.30
66190;DHT22;52992;52.084;5.412;2023-09-19T10:56:35;24.10;54.20
66190;DHT22;52992;52.084;5.412;2023-09-19T10:59:13;23.50;54.10
66190;DHT22;52992;52.084;5.412;2023-09-19T11:04:30;23.20;56.30
66190;DHT22;52992;52.084;5.412;2023-09-19T11:09:57;23.10;57.70
66190;DHT22;52992;52.084;5.412;2023-09-19T11:15:03;23.60;56.00
66190;DHT22;52992;52.084;5.412;2023-09-19T11:17:41;23.50;55.30
66190;DHT22;52992;52.084;5.412;2023-09-19T11:30:39;23.20;56.60
66190;DHT22;52992;52.084;5.412;2023-09-19T11:36:16;23.70;56.00
66190;DHT22;52992;52.084;5.412;2023-09-19T11:43:48;23.10;54.00
66190;DHT22;52992;52.084;5.412;2023-09-19T11:46:21;22.90;55.60
66190;DHT22;52992;52.084;5.412;2023-09-19T11:48:49;22.70;56.50
66190;DHT22;52992;52.084;5.412;2023-09-19T11:51:21;22.70;55.20
66190;DHT22;52992;52.084;5.412;2023-09-19T11:53:50;22.70;56.00
66190;DHT22;52992;52.084;5.412;2023-09-19T11:56:19;22.90;55.80
66190;DHT22;52992;52.084;5.412;2023-09-19T11:58:53;22.90;54.70
66190;DHT22;52992;52.084;5.412;2023-09-19T12:01:28;22.90;54.30
66190;DHT22;52992;52.084;5.412;2023-09-19T12:03:58;22.80;54.00
66190;DHT22;52992;52.084;5.412;2023-09-19T12:06:27;22.80;54.50
66190;DHT22;52992;52.084;5.412;2023-09-19T12:08:56;22.70;54.90
66190;DHT22;52992;52.084;5.412;2023-09-19T12:11:30;22.50;54.10
66190;DHT22;52992;52.084;5.412;2023-09-19T12:14:02;22.40;54.80
66190;DHT22;52992;52.084;5.412;2023-09-19T12:16:31;22.30;55.50
66190;DHT22;52992;52.084;5.412;2023-09-19T12:19:18;22.20;55.50
66190;DHT22;52992;52.084;5.412;2023-09-19T12:21:59;22.20;54.60
66190;DHT22;52992;52.084;5.412;2023-09-19T12:24:27;22.10;55.10
66190;DHT22;52992;52.084;5.412;2023-09-19T12:27:02;22.20;55.10
66190;DHT22;52992;52.084;5.412;2023-09-19T12:29:32;22.20;55.20
66190;DHT22;52992;52.084;5.412;2023-09-19T12:32:08;22.10;54.70
66190;DHT22;52992;52.084;5.412;2023-09-19T12:34:35;22.10;55.50
66190;DHT22;52992;52.084;5.412;2023-09-19T12:37:12;22.00;56.10
66190;DHT22;52992;52.084;5.412;2023-09-19T12:39:43;22.00;56.50
66190;DHT22;52992;52.084;5.412;2023-09-19T12:42:17;22.10;56.20
66190;DHT22;52992;52.084;5.412;2023-09-19T12:44:48;22.10;55.20
66190;DHT22;52992;52.084;5.412;2023-09-19T12:47:18;22.00;56.10
66190;DHT22;52992;52.084;5.412;2023-09-19T12:52:49;21.80;56.40
66190;DHT22;52992;52.084;5.412;2023-09-19T12:55:27;21.80;57.10
66190;DHT22;52992;52.084;5.412;2023-09-19T12:58:13;21.70;56.80
66190;DHT22;52992;52.084;5.412;2023-09-19T13:00:43;21.70;56.80
66190;DHT22;52992;52.084;5.412;2023-09-19T13:03:17;21.70;57.20
66190;DHT22;52992;52.084;5.412;2023-09-19T13:08:18;21.90;56.90
66190;DHT22;52992;52.084;5.412;2023-09-19T13:11:12;21.90;56.00
66190;DHT22;52992;52.084;5.412;2023-09-19T13:13:43;22.00;56.70
66190;DHT22;52992;52.084;5.412;2023-09-19T13:16:17;22.10;57.10
66190;DHT22;52992;52.084;5.412;2023-09-19T13:18:51;22.00;56.60
66190;DHT22;52992;52.084;5.412;2023-09-19T13:21:30;22.10;56.60
66190;DHT22;52992;52.084;5.412;2023-09-19T13:24:21;22.00;56.80
66190;DHT22;52992;52.084;5.412;2023-09-19T13:26:49;22.00;56.80
66190;DHT22;52992;52.084;5.412;2023-09-19T13:29:16;21.80;56.90
66190;DHT22;52992;52.084;5.412;2023-09-19T13:31:49;21.80;57.40
66190;DHT22;52992;52.084;5.412;2023-09-19T13:34:16;21.80;57.80
66190;DHT22;52992;52.084;5.412;2023-09-19T13:36:44;21.90;58.00
66190;DHT22;52992;52.084;5.412;2023-09-19T13:39:11;22.10;58.10
66190;DHT22;52992;52.084;5.412;2023-09-19T13:41:45;22.10;57.00
66190;DHT22;52992;52.084;5.412;2023-09-19T13:44:14;22.10;57.50
66190;DHT22;52992;52.084;5.412;2023-09-19T13:46:41;22.20;57.60
66190;DHT22;52992;52.084;5.412;2023-09-19T13:49:12;22.30;57.10
66190;DHT22;52992;52.084;5.412;2023-09-19T13:51:39;22.30;58.10
66190;DHT22;52992;52.084;5.412;2023-09-19T13:54:10;22.40;56.90
66190;DHT22;52992;52.084;5.412;2023-09-19T13:56:38;22.50;57.20
66190;DHT22;52992;52.084;5.412;2023-09-19T13:59:06;22.50;56.70
66190;DHT22;52992;52.084;5.412;2023-09-19T14:01:33;22.50;56.90
66190;DHT22;52992;52.084;5.412;2023-09-19T14:04:00;22.40;57.00
66190;DHT22;52992;52.084;5.412;2023-09-19T14:06:27;22.40;57.00
66190;DHT22;52992;52.084;5.412;2023-09-19T14:08:54;22.30;57.00
66190;DHT22;52992;52.084;5.412;2023-09-19T14:11:21;22.30;56.60
66190;DHT22;52992;52.084;5.412;2023-09-19T14:13:47;22.20;56.20
66190;DHT22;52992;52.084;5.412;2023-09-19T14:16:16;22.20;56.40
66190;DHT22;52992;52.084;5.412;2023-09-19T14:18:45;22.10;57.00
66190;DHT22;52992;52.084;5.412;2023-09-19T14:21:13;22.10;56.50
66190;DHT22;52992;52.084;5.412;2023-09-19T14:23:41;22.10;56.50
66190;DHT22;52992;52.084;5.412;2023-09-19T14:26:10;22.10;57.00
66190;DHT22;52992;52.084;5.412;2023-09-19T14:28:37;22.10;57.20
66190;DHT22;52992;52.084;5.412;2023-09-19T14:31:10;22.10;57.00
66190;DHT22;52992;52.084;5.412;2023-09-19T14:33:38;22.10;56.70
66190;DHT22;52992;52.084;5.412;2023-09-19T14:36:07;22.10;56.60
66190;DHT22;52992;52.084;5.412;2023-09-19T14:38:37;22.10;57.10
66190;DHT22;52992;52.084;5.412;2023-09-19T14:41:06;22.10;56.80
66190;DHT22;52992;52.084;5.412;2023-09-19T14:43:33;22.10;57.30
66190;DHT22;52992;52.084;5.412;2023-09-19T14:46:04;22.20;57.00
66190;DHT22;52992;52.084;5.412;2023-09-19T14:48:31;22.10;57.00
66190;DHT22;52992;52.084;5.412;2023-09-19T14:51:05;22.10;57.40
66190;DHT22;52992;52.084;5.412;2023-09-19T14:53:36;22.10;56.50
66190;DHT22;52992;52.084;5.412;2023-09-19T14:56:08;22.00;56.20
66190;DHT22;52992;52.084;5.412;2023-09-19T14:58:35;21.90;56.10
66190;DHT22;52992;52.084;5.412;2023-09-19T15:01:10;21.80;55.70
66190;DHT22;52992;52.084;5.412;2023-09-19T15:03:38;21.80;56.20
66190;DHT22;52992;52.084;5.412;2023-09-19T15:06:08;21.80;56.50
66190;DHT22;52992;52.084;5.412;2023-09-19T15:08:37;21.80;56.60
66190;DHT22;52992;52.084;5.412;2023-09-19T15:11:07;21.80;56.30
66190;DHT22;52992;52.084;5.412;2023-09-19T15:13:35;21.70;56.10
66190;DHT22;52992;52.084;5.412;2023-09-19T15:16:04;21.60;55.90
66190;DHT22;52992;52.084;5.412;2023-09-19T15:18:31;21.70;56.70
66190;DHT22;52992;52.084;5.412;2023-09-19T15:21:00;21.70;56.80
66190;DHT22;52992;52.084;5.412;2023-09-19T15:23:27;21.70;56.70
66190;DHT22;52992;52.084;5.412;2023-09-19T15:25:58;21.80;56.60
66190;DHT22;52992;52.084;5.412;2023-09-19T15:28:25;21.80;56.80
66190;DHT22;52992;52.084;5.412;2023-09-19T15:31:06;21.80;56.70
66190;DHT22;52992;52.084;5.412;2023-09-19T15:33:34;21.90;57.20
66190;DHT22;52992;52.084;5.412;2023-09-19T15:36:06;21.90;58.20
66190;DHT22;52992;52.084;5.412;2023-09-19T15:42:40;21.80;57.60
66190;DHT22;52992;52.084;5.412;2023-09-19T15:45:07;21.70;57.50
66190;DHT22;52992;52.084;5.412;2023-09-19T15:47:36;21.80;57.40
66190;DHT22;52992;52.084;5.412;2023-09-19T15:50:05;21.80;57.30
66190;DHT22;52992;52.084;5.412;2023-09-19T15:52:32;21.80;57.60
66190;DHT22;52992;52.084;5.412;2023-09-19T15:54:59;21.80;57.90
66190;DHT22;52992;52.084;5.412;2023-09-19T15:57:26;21.80;57.80
66190;DHT22;52992;52.084;5.412;2023-09-19T16:04:05;21.70;57.40
66190;DHT22;52992;52.084;5.412;2023-09-19T16:06:36;21.70;57.90
66190;DHT22;52992;52.084;5.412;2023-09-19T16:09:05;21.70;58.00
66190;DHT22;52992;52.084;5.412;2023-09-19T16:11:33;21.70;58.00
66190;DHT22;52992;52.084;5.412;2023-09-19T16:14:00;21.70;57.60
66190;DHT22;52992;52.084;5.412;2023-09-19T16:16:28;21.70;57.60
66190;DHT22;52992;52.084;5.412;2023-09-19T16:19:01;21.60;56.80
66190;DHT22;52992;52.084;5.412;2023-09-19T16:21:31;21.60;57.00
66190;DHT22;52992;52.084;5.412;2023-09-19T16:24:00;21.60;57.40
66190;DHT22;52992;52.084;5.412;2023-09-19T16:26:27;21.70;57.50
66190;DHT22;52992;52.084;5.412;2023-09-19T16:28:57;21.70;57.30
66190;DHT22;52992;52.084;5.412;2023-09-19T16:31:31;21.70;57.50
66190;DHT22;52992;52.084;5.412;2023-09-19T16:34:00;21.70;57.70
66190;DHT22;52992;52.084;5.412;2023-09-19T16:36:27;21.80;57.70
66190;DHT22;52992;52.084;5.412;2023-09-19T16:38:55;21.70;57.50
66190;DHT22;52992;52.084;5.412;2023-09-19T16:41:22;21.80;57.70